createdAt,value
2023-04-03T00:01:22.546Z,54.53
2023-04-03T00:03:49.367Z,55.22
2023-04-03T00:06:16.243Z,55.01
2023-04-03T00:08:43.082Z,56.10
2023-04-03T00:11:10.836Z,55.58
2023-04-03T00:13:38.894Z,56.02
2023-04-03T00:16:06.608Z,55.97
2023-04-03T00:18:33.505Z,55.94
2023-04-03T00:21:00.727Z,55.69
2023-04-03T00:23:27.543Z,56.66
2023-04-03T00:25:55.350Z,57.07
2023-04-03T00:28:22.550Z,56.68
2023-04-03T00:30:52.616Z,56.01
2023-04-03T00:33:25.302Z,56.33
2023-04-03T00:35:52.569Z,56.94
2023-04-03T00:38:19.487Z,56.81
2023-04-03T00:40:48.910Z,56.68
2023-04-03T00:43:23.722Z,57.33
2023-04-03T00:45:54.040Z,56.93
2023-04-03T00:48:32.967Z,56.82
2023-04-03T00:51:01.362Z,56.74
2023-04-03T00:53:54.074Z,56.36
2023-04-03T00:56:25.023Z,56.36
2023-04-03T00:59:18.123Z,56.08
2023-04-03T01:01:45.468Z,55.73
2023-04-03T01:04:37.828Z,56.12
2023-04-03T01:07:16.445Z,56.30
2023-04-03T01:09:44.248Z,55.88
2023-04-03T01:12:19.169Z,56.26
2023-04-03T01:14:47.523Z,56.31
2023-04-03T01:17:44.798Z,56.03
2023-04-03T01:20:32.792Z,56.28
2023-04-03T01:23:12.053Z,56.46
2023-04-03T01:25:44.930Z,56.63
2023-04-03T01:28:19.825Z,56.12
2023-04-03T01:31:28.388Z,55.99
2023-04-03T01:33:56.512Z,56.34
2023-04-03T01:36:31.008Z,56.49
2023-04-03T01:39:00.705Z,56.42
2023-04-03T01:41:27.966Z,56.38
2023-04-03T01:43:54.833Z,56.52
2023-04-03T01:46:22.061Z,56.34
2023-04-03T01:48:50.403Z,57.01
2023-04-03T01:51:17.858Z,56.85
2023-04-03T01:53:44.743Z,57.30
2023-04-03T01:56:11.751Z,57.02
2023-04-03T01:58:39.244Z,57.14
2023-04-03T02:01:06.928Z,57.02
2023-04-03T02:03:34.033Z,57.16
2023-04-03T02:06:00.897Z,57.01
2023-04-03T02:08:27.772Z,57.26
2023-04-03T02:10:54.642Z,57.06
2023-04-03T02:13:21.441Z,56.77
2023-04-03T02:15:48.773Z,57.01
2023-04-03T02:18:16.091Z,56.59
2023-04-03T02:20:43.197Z,56.33
2023-04-03T02:23:10.698Z,56.25
2023-04-03T02:25:38.924Z,56.26
2023-04-03T02:28:06.820Z,56.98
2023-04-03T02:30:33.742Z,57.29
2023-04-03T02:33:00.931Z,57.67
2023-04-03T02:35:27.912Z,58.10
2023-04-03T02:37:54.883Z,57.92
2023-04-03T02:40:21.687Z,58.25
2023-04-03T02:42:48.461Z,57.72
2023-04-03T02:45:15.316Z,57.70
2023-04-03T02:47:42.287Z,58.11
2023-04-03T02:50:09.563Z,57.49
2023-04-03T02:52:36.437Z,57.43
2023-04-03T02:55:03.689Z,57.16
2023-04-03T02:57:30.928Z,56.87
2023-04-03T02:59:57.897Z,56.92
2023-04-03T03:02:25.033Z,56.56
2023-04-03T03:04:51.848Z,56.70
2023-04-03T03:07:18.731Z,56.86
2023-04-03T03:09:45.499Z,56.91
2023-04-03T03:12:12.398Z,56.52
2023-04-03T03:14:39.253Z,56.61
2023-04-03T03:17:06.248Z,56.96
2023-04-03T03:19:33.047Z,57.22
2023-04-03T03:21:59.878Z,57.38
2023-04-03T03:24:26.676Z,57.65
2023-04-03T03:26:53.549Z,58.03
2023-04-03T03:29:20.493Z,58.25
2023-04-03T03:31:47.381Z,58.66
2023-04-03T03:34:14.386Z,58.58
2023-04-03T03:36:41.792Z,58.52
2023-04-03T03:39:08.637Z,58.04
2023-04-03T03:41:35.505Z,57.84
2023-04-03T03:44:02.402Z,57.72
2023-04-03T03:46:29.266Z,57.99
2023-04-03T03:48:56.198Z,57.95
2023-04-03T03:51:23.063Z,58.11
2023-04-03T03:53:49.911Z,57.71
2023-04-03T03:56:16.775Z,58.03
2023-04-03T03:58:43.623Z,57.86
2023-04-03T04:01:10.456Z,57.58
2023-04-03T04:03:38.151Z,57.33
2023-04-03T04:06:05.344Z,57.19
2023-04-03T04:08:32.261Z,57.02
2023-04-03T04:10:59.040Z,57.55
2023-04-03T04:13:26.120Z,57.95
2023-04-03T04:15:52.933Z,58.10
2023-04-03T04:18:21.151Z,57.81
2023-04-03T04:20:48.026Z,58.34
2023-04-03T04:23:15.236Z,58.38
2023-04-03T04:25:42.103Z,57.92
2023-04-03T04:28:09.005Z,58.01
2023-04-03T04:30:35.911Z,58.42
2023-04-03T04:33:02.817Z,57.94
2023-04-03T04:35:29.942Z,58.15
2023-04-03T04:37:57.034Z,58.12
2023-04-03T04:40:24.084Z,58.21
2023-04-03T04:42:51.015Z,58.26
2023-04-03T04:45:17.920Z,58.50
2023-04-03T04:47:45.494Z,58.59
2023-04-03T04:50:12.992Z,58.47
2023-04-03T04:52:40.063Z,58.63
2023-04-03T04:55:07.579Z,58.80
2023-04-03T04:57:35.615Z,58.38
2023-04-03T05:00:02.642Z,58.58
2023-04-03T05:02:29.577Z,58.97
2023-04-03T05:04:56.390Z,58.72
2023-04-03T05:07:23.638Z,58.72
2023-04-03T05:09:50.517Z,58.26
2023-04-03T05:12:18.187Z,58.19
2023-04-03T05:14:45.218Z,58.43
2023-04-03T05:17:12.158Z,58.06
2023-04-03T05:19:39.042Z,58.26
2023-04-03T05:22:05.844Z,58.41
2023-04-03T05:24:32.688Z,58.55
2023-04-03T05:26:59.835Z,58.44
2023-04-03T05:29:26.663Z,58.35
2023-04-03T05:31:53.541Z,58.49
2023-04-03T05:34:20.515Z,58.17
2023-04-03T05:36:47.431Z,58.14
2023-04-03T05:39:14.672Z,57.82
2023-04-03T05:41:41.527Z,58.03
2023-04-03T05:44:08.379Z,57.63
2023-04-03T05:46:35.458Z,57.58
2023-04-03T05:49:02.248Z,57.38
2023-04-03T05:51:36.649Z,57.21
2023-04-03T05:54:28.648Z,57.01
2023-04-03T05:56:56.113Z,57.13
2023-04-03T05:59:23.395Z,56.45
2023-04-03T06:01:50.415Z,56.10
2023-04-03T06:04:17.511Z,56.41
2023-04-03T06:06:58.217Z,56.91
2023-04-03T06:09:29.961Z,56.60
2023-04-03T06:11:59.458Z,56.57
2023-04-03T06:14:27.506Z,56.20
2023-04-03T06:16:55.259Z,55.60
2023-04-03T06:19:22.201Z,55.46
2023-04-03T06:21:49.050Z,54.91
2023-04-03T06:24:17.740Z,55.76
2023-04-03T06:26:45.241Z,55.46
2023-04-03T06:29:12.107Z,55.87
2023-04-03T06:31:39.034Z,55.38
2023-04-03T06:34:09.542Z,54.92
2023-04-03T06:36:36.942Z,54.83
2023-04-03T06:39:04.162Z,54.67
2023-04-03T06:41:31.610Z,54.16
2023-04-03T06:43:59.378Z,54.32
2023-04-03T06:46:27.957Z,54.82
2023-04-03T06:48:55.000Z,53.71
2023-04-03T06:51:23.304Z,53.90
2023-04-03T06:53:52.348Z,54.46
2023-04-03T06:56:19.799Z,53.91
2023-04-03T06:58:47.173Z,53.75
2023-04-03T07:01:16.571Z,51.34
2023-04-03T07:03:43.756Z,52.33
2023-04-03T07:06:15.828Z,51.47
2023-04-03T07:08:43.431Z,51.66
2023-04-03T07:11:11.446Z,50.86
2023-04-03T07:13:39.508Z,51.52
2023-04-03T07:16:07.271Z,51.70
2023-04-03T07:18:34.784Z,51.80
2023-04-03T07:21:01.655Z,51.60
2023-04-03T07:23:28.866Z,52.22
2023-04-03T07:25:56.207Z,51.70
2023-04-03T07:28:23.970Z,51.90
2023-04-03T07:31:03.965Z,51.32
2023-04-03T07:33:32.030Z,52.43
2023-04-03T07:35:59.355Z,52.36
2023-04-03T07:38:26.623Z,52.76
2023-04-03T07:40:53.770Z,51.60
2023-04-03T07:43:22.928Z,52.11
2023-04-03T07:45:51.744Z,52.59
2023-04-03T07:48:24.764Z,51.81
2023-04-03T07:50:53.021Z,50.85
2023-04-03T07:53:19.816Z,51.56
2023-04-03T07:55:50.035Z,50.31
2023-04-03T07:58:19.393Z,50.10
2023-04-03T08:00:46.985Z,49.18
2023-04-03T08:03:14.837Z,48.26
2023-04-03T08:05:43.738Z,50.29
2023-04-03T08:08:13.005Z,49.42
2023-04-03T08:10:40.600Z,50.17
2023-04-03T08:13:08.924Z,49.79
2023-04-03T08:15:36.370Z,49.04
2023-04-03T08:18:04.806Z,47.94
2023-04-03T08:20:31.796Z,47.47
2023-04-03T08:22:58.696Z,46.22
2023-04-03T08:25:25.821Z,45.77
2023-04-03T08:27:52.696Z,46.17
2023-04-03T08:30:19.668Z,45.72
2023-04-03T08:32:46.828Z,47.37
2023-04-03T08:35:13.809Z,47.21
2023-04-03T08:37:41.312Z,47.21
2023-04-03T08:40:15.141Z,48.11
2023-04-03T08:43:06.028Z,47.46
2023-04-03T08:45:51.279Z,47.48
2023-04-03T08:48:32.822Z,47.29
2023-04-03T08:51:05.468Z,46.41
2023-04-03T08:53:41.618Z,47.47
2023-04-03T08:56:11.252Z,46.91
2023-04-03T08:58:57.623Z,46.35
2023-04-03T09:01:35.883Z,46.08
2023-04-03T09:04:10.074Z,46.98
2023-04-03T09:06:39.308Z,47.92
2023-04-03T09:09:44.480Z,44.87
2023-04-03T09:12:27.450Z,44.01
2023-04-03T09:15:27.843Z,44.04
2023-04-03T09:18:16.662Z,44.41
2023-04-03T09:21:13.665Z,45.00
2023-04-03T09:23:52.943Z,43.94
2023-04-03T09:26:27.495Z,42.68
2023-04-03T09:29:02.137Z,41.37
2023-04-03T09:31:41.086Z,42.79
2023-04-03T09:34:27.413Z,42.34
2023-04-03T09:36:57.112Z,42.83
2023-04-03T09:39:30.286Z,41.93
2023-04-03T09:42:05.941Z,42.44
2023-04-03T09:44:38.726Z,41.09
2023-04-03T09:47:34.831Z,39.57
2023-04-03T09:50:14.225Z,41.99
2023-04-03T09:52:43.970Z,40.84
2023-04-03T09:55:32.451Z,38.65
2023-04-03T09:58:02.851Z,38.87
2023-04-03T10:00:38.507Z,38.48
2023-04-03T10:03:07.073Z,40.79
2023-04-03T10:05:41.501Z,39.60
2023-04-03T10:08:33.495Z,38.24
2023-04-03T10:11:16.815Z,38.92
2023-04-03T10:14:05.923Z,39.75
2023-04-03T10:16:42.904Z,40.46
2023-04-03T10:19:18.571Z,40.17
2023-04-03T10:22:17.135Z,40.18
2023-04-03T10:25:16.907Z,39.38
2023-04-03T10:28:17.326Z,37.71
2023-04-03T10:31:02.375Z,37.75
2023-04-03T10:34:13.827Z,39.20
2023-04-03T10:36:57.605Z,39.81
2023-04-03T10:39:40.987Z,41.78
2023-04-03T10:42:24.596Z,41.98
2023-04-03T10:45:01.110Z,41.66
2023-04-03T10:47:42.810Z,41.74
2023-04-03T10:50:45.856Z,40.74
2023-04-03T10:53:29.618Z,40.92
2023-04-03T10:56:33.670Z,41.03
2023-04-03T10:59:31.666Z,39.50
2023-04-03T11:02:08.507Z,40.51
2023-04-03T11:04:40.304Z,40.55
2023-04-03T11:07:20.994Z,39.76
2023-04-03T11:09:55.246Z,39.29
2023-04-03T11:12:48.112Z,38.88
2023-04-03T11:15:18.995Z,37.11
2023-04-03T11:17:51.998Z,34.70
2023-04-03T11:20:34.345Z,33.30
2023-04-03T11:23:21.998Z,34.10
2023-04-03T11:25:54.572Z,32.71
2023-04-03T11:28:21.560Z,33.19
2023-04-03T11:30:52.899Z,31.82
2023-04-03T11:33:42.841Z,34.26
2023-04-03T11:36:34.799Z,35.11
2023-04-03T11:39:33.110Z,36.65
2023-04-03T11:42:24.123Z,36.69
2023-04-03T11:44:50.998Z,38.35
2023-04-03T11:47:51.761Z,38.78
2023-04-03T11:50:41.259Z,37.55
2023-04-03T11:53:08.286Z,36.89
2023-04-03T11:55:35.104Z,37.81
2023-04-03T11:58:02.023Z,37.00
2023-04-03T12:00:50.588Z,36.22
2023-04-03T12:03:26.659Z,33.89
2023-04-03T12:05:55.050Z,33.63
2023-04-03T12:08:46.615Z,32.83
2023-04-03T12:11:13.478Z,33.52
2023-04-03T12:13:58.299Z,34.97
2023-04-03T12:16:58.491Z,35.34
2023-04-03T12:19:44.451Z,37.21
2023-04-03T12:22:17.600Z,38.54
2023-04-03T12:24:52.580Z,38.23
2023-04-03T12:27:41.831Z,38.25
2023-04-03T12:30:20.032Z,39.75
2023-04-03T12:33:12.560Z,39.27
2023-04-03T12:35:55.161Z,36.34
2023-04-03T12:39:07.358Z,36.64
2023-04-03T12:42:10.618Z,35.94
2023-04-03T12:44:53.397Z,36.47
2023-04-03T12:47:37.101Z,35.38
2023-04-03T12:50:17.182Z,35.40
2023-04-03T12:52:51.433Z,35.23
2023-04-03T12:55:21.327Z,35.55
2023-04-03T12:57:48.865Z,33.90
2023-04-03T13:00:34.428Z,33.23
2023-04-03T13:03:05.168Z,32.19
2023-04-03T13:05:35.940Z,31.76
2023-04-03T13:08:11.909Z,30.01
2023-04-03T13:11:00.589Z,27.37
2023-04-03T13:13:27.912Z,23.95
2023-04-03T13:15:56.064Z,22.46
2023-04-03T13:18:34.649Z,23.31
2023-04-03T13:21:19.700Z,23.36
2023-04-03T13:23:57.397Z,23.05
2023-04-03T13:26:31.942Z,24.25
2023-04-03T13:29:09.458Z,23.90
2023-04-03T13:31:41.375Z,24.07
2023-04-03T13:34:18.702Z,25.98
2023-04-03T13:37:00.345Z,27.82
2023-04-03T13:39:30.718Z,29.61
2023-04-03T13:42:02.787Z,29.77
2023-04-03T13:44:37.008Z,30.02
2023-04-03T13:47:24.357Z,30.52
2023-04-03T13:50:12.150Z,30.35
2023-04-03T13:53:13.243Z,30.08
2023-04-03T13:55:59.289Z,30.84
2023-04-03T13:58:31.394Z,31.89
2023-04-03T14:01:21.275Z,30.91
2023-04-03T14:04:01.953Z,28.74
2023-04-03T14:06:30.307Z,25.84
2023-04-03T14:08:57.159Z,22.94
2023-04-03T14:11:29.598Z,20.13
2023-04-03T14:14:02.131Z,19.13
2023-04-03T14:16:32.621Z,18.76
2023-04-03T14:18:59.535Z,18.31
2023-04-03T14:21:26.887Z,19.44
2023-04-03T14:23:53.736Z,21.56
2023-04-03T14:26:27.438Z,20.37
2023-04-03T14:28:56.620Z,18.02
2023-04-03T14:31:24.355Z,18.88
2023-04-03T14:33:51.469Z,16.38
2023-04-03T14:36:23.660Z,17.17
2023-04-03T14:38:51.992Z,16.86
2023-04-03T14:41:23.097Z,18.06
2023-04-03T14:43:51.205Z,18.54
2023-04-03T14:46:26.445Z,18.54
2023-04-03T14:48:54.686Z,17.45
2023-04-03T14:51:21.791Z,17.82
2023-04-03T14:53:50.089Z,17.08
2023-04-03T14:56:27.411Z,17.51
2023-04-03T14:59:00.258Z,17.95
2023-04-03T15:01:29.244Z,18.45
2023-04-03T15:03:56.346Z,18.22
2023-04-03T15:06:23.404Z,18.96
2023-04-03T15:08:50.435Z,20.26
2023-04-03T15:11:17.266Z,21.76
2023-04-03T15:13:44.312Z,19.57
2023-04-03T15:16:20.428Z,19.38
2023-04-03T15:18:48.373Z,18.64
2023-04-03T15:21:15.287Z,18.80
2023-04-03T15:23:43.008Z,16.30
2023-04-03T15:26:10.513Z,16.52
2023-04-03T15:28:46.565Z,17.20
2023-04-03T15:31:13.447Z,19.66
2023-04-03T15:33:40.441Z,19.67
2023-04-03T15:36:17.213Z,20.89
2023-04-03T15:38:54.459Z,22.55
2023-04-03T15:41:21.978Z,22.64
2023-04-03T15:43:48.798Z,24.06
2023-04-03T15:46:15.857Z,26.28
2023-04-03T15:48:43.925Z,26.87
2023-04-03T15:51:11.155Z,26.92
2023-04-03T15:53:37.984Z,27.47
2023-04-03T15:56:05.643Z,29.00
2023-04-03T15:58:32.582Z,29.27
2023-04-03T16:00:59.546Z,29.55
2023-04-03T16:03:26.533Z,28.95
2023-04-03T16:05:53.792Z,29.14
2023-04-03T16:08:21.094Z,29.30
2023-04-03T16:10:48.008Z,29.17
2023-04-03T16:13:15.789Z,29.45
2023-04-03T16:15:42.956Z,29.61
2023-04-03T16:18:11.341Z,30.44
2023-04-03T16:20:38.467Z,32.33
2023-04-03T16:23:05.861Z,33.17
2023-04-03T16:25:32.769Z,34.66
2023-04-03T16:27:59.699Z,34.57
2023-04-03T16:30:26.999Z,34.41
2023-04-03T16:32:54.538Z,33.54
2023-04-03T16:35:21.471Z,33.43
2023-04-03T16:37:48.421Z,33.87
2023-04-03T16:40:15.732Z,33.08
2023-04-03T16:42:42.733Z,33.34
2023-04-03T16:45:11.129Z,32.59
2023-04-03T16:47:38.082Z,33.31
2023-04-03T16:50:05.870Z,34.98
2023-04-03T16:52:32.771Z,34.37
2023-04-03T16:54:59.885Z,35.15
2023-04-03T16:57:27.041Z,34.58
2023-04-03T16:59:54.834Z,34.20
2023-04-03T17:02:27.506Z,34.37
2023-04-03T17:04:55.233Z,33.56
2023-04-03T17:07:25.362Z,34.23
2023-04-03T17:09:54.304Z,34.72
2023-04-03T17:12:22.494Z,35.44
2023-04-03T17:14:49.571Z,35.43
2023-04-03T17:17:21.495Z,36.10
2023-04-03T17:19:48.717Z,36.09
2023-04-03T17:22:17.546Z,35.88
2023-04-03T17:24:45.845Z,36.32
2023-04-03T17:27:13.069Z,36.34
2023-04-03T17:29:39.889Z,36.74
2023-04-03T17:32:06.766Z,36.57
2023-04-03T17:34:33.767Z,36.46
2023-04-03T17:37:00.671Z,36.49
2023-04-03T17:39:27.616Z,37.27
2023-04-03T17:41:55.122Z,37.13
2023-04-03T17:44:22.811Z,37.81
2023-04-03T17:46:49.664Z,38.34
2023-04-03T17:49:18.864Z,37.88
2023-04-03T17:51:45.757Z,38.47
2023-04-03T17:54:12.896Z,38.37
2023-04-03T17:56:39.793Z,37.82
2023-04-03T17:59:06.736Z,38.07
2023-04-03T18:01:36.728Z,38.06
2023-04-03T18:04:05.882Z,38.47
2023-04-03T18:06:45.709Z,38.69
2023-04-03T18:09:19.055Z,38.36
2023-04-03T18:11:47.653Z,38.22
2023-04-03T18:14:22.614Z,38.64
2023-04-03T18:16:49.878Z,37.75
2023-04-03T18:22:09.082Z,38.44
2023-04-03T18:24:36.514Z,38.80
2023-04-03T18:27:13.523Z,38.00
2023-04-03T18:29:42.959Z,38.78
2023-04-03T18:32:13.509Z,38.80
2023-04-03T18:34:40.635Z,39.47
2023-04-03T18:37:07.634Z,39.15
2023-04-03T18:39:34.485Z,39.50
2023-04-03T18:42:10.052Z,40.39
2023-04-03T18:44:39.271Z,39.70
2023-04-03T18:47:07.877Z,39.41
2023-04-03T18:49:36.647Z,39.95
2023-04-03T18:52:04.571Z,39.99
2023-04-03T18:54:32.504Z,39.52
2023-04-03T18:56:59.535Z,40.13
2023-04-03T18:59:27.425Z,39.37
2023-04-03T19:01:55.601Z,40.12
2023-04-03T19:04:23.395Z,40.26
2023-04-03T19:06:51.451Z,40.66
2023-04-03T19:09:18.364Z,40.86
2023-04-03T19:11:45.397Z,41.20
2023-04-03T19:14:16.505Z,40.24
2023-04-03T19:16:44.960Z,40.15
2023-04-03T19:19:12.597Z,40.73
2023-04-03T19:21:41.425Z,41.08
2023-04-03T19:24:11.602Z,41.07
2023-04-03T19:26:40.798Z,41.15
2023-04-03T19:29:08.216Z,41.35
2023-04-03T19:31:37.115Z,41.39
2023-04-03T19:34:05.498Z,41.36
2023-04-03T19:36:33.360Z,41.29
2023-04-03T19:39:00.254Z,42.08
2023-04-03T19:41:30.953Z,41.85
2023-04-03T19:43:58.179Z,41.79
2023-04-03T19:46:27.300Z,41.90
2023-04-03T19:48:54.650Z,42.19
2023-04-03T19:51:21.762Z,41.89
2023-04-03T19:53:48.788Z,42.39
2023-04-03T19:56:20.741Z,42.59
2023-04-03T19:58:53.670Z,42.41
2023-04-03T20:01:24.255Z,41.89
2023-04-03T20:03:51.701Z,42.08
2023-04-03T20:06:18.841Z,41.92
2023-04-03T20:08:45.665Z,42.08
2023-04-03T20:11:12.604Z,42.48
2023-04-03T20:13:39.671Z,42.08
2023-04-03T20:16:08.314Z,41.76
2023-04-03T20:18:35.888Z,41.72
2023-04-03T20:21:04.869Z,42.28
2023-04-03T20:23:33.200Z,42.58
2023-04-03T20:26:09.539Z,42.41
2023-04-03T20:28:39.066Z,42.43
2023-04-03T20:31:07.836Z,42.30
2023-04-03T20:33:35.364Z,43.31
2023-04-03T20:36:02.436Z,43.36
2023-04-03T20:38:29.377Z,43.39
2023-04-03T20:40:56.211Z,42.88
2023-04-03T20:43:23.683Z,43.41
2023-04-03T20:45:50.860Z,43.36
2023-04-03T20:48:18.418Z,43.58
2023-04-03T20:50:46.483Z,43.43
2023-04-03T20:53:14.746Z,43.47
2023-04-03T20:55:42.287Z,43.81
2023-04-03T20:58:09.315Z,43.21
2023-04-03T21:00:37.902Z,44.29
2023-04-03T21:03:05.822Z,44.42
2023-04-03T21:05:34.552Z,44.23
2023-04-03T21:08:57.678Z,44.06
2023-04-03T21:12:20.653Z,43.74
2023-04-03T21:15:45.193Z,43.77
2023-04-03T21:18:12.381Z,43.80
2023-04-03T21:20:43.112Z,43.77
2023-04-03T21:23:11.151Z,43.84
2023-04-03T21:25:38.047Z,43.97
2023-04-03T21:28:04.868Z,43.97
2023-04-03T21:30:31.708Z,44.02
2023-04-03T21:32:58.781Z,44.46
2023-04-03T21:35:26.049Z,44.17
2023-04-03T21:37:52.848Z,43.91
2023-04-03T21:40:19.742Z,43.96
2023-04-03T21:42:46.647Z,44.23
2023-04-03T21:45:15.996Z,44.94
2023-04-03T21:47:43.929Z,44.82
2023-04-03T21:50:11.347Z,45.17
2023-04-03T21:52:38.217Z,44.81
2023-04-03T21:55:05.546Z,44.59
2023-04-03T21:57:32.384Z,45.04
2023-04-03T21:59:59.392Z,45.04
2023-04-03T22:02:29.884Z,45.40
2023-04-03T22:04:56.740Z,44.95
2023-04-03T22:07:23.630Z,44.78
2023-04-03T22:09:50.723Z,45.49
2023-04-03T22:12:17.664Z,45.36
2023-04-03T22:14:44.671Z,45.80
2023-04-03T22:17:11.723Z,45.69
2023-04-03T22:19:39.045Z,45.61
2023-04-03T22:22:05.974Z,45.53
2023-04-03T22:24:32.768Z,45.79
2023-04-03T22:26:59.586Z,45.60
2023-04-03T22:29:27.414Z,45.99
2023-04-03T22:31:54.331Z,46.28
2023-04-03T22:34:22.556Z,46.11
2023-04-03T22:36:49.376Z,46.68
2023-04-03T22:39:16.422Z,46.72
2023-04-03T22:41:45.346Z,46.65
2023-04-03T22:44:12.711Z,46.87
2023-04-03T22:46:39.753Z,47.21
2023-04-03T22:49:06.649Z,47.25
2023-04-03T22:51:33.504Z,47.17
2023-04-03T22:54:00.538Z,47.18
2023-04-03T22:56:27.645Z,47.10
2023-04-03T22:58:55.190Z,47.28
2023-04-03T23:01:24.074Z,47.32
2023-04-03T23:03:51.721Z,47.31
2023-04-03T23:06:18.660Z,47.27
2023-04-03T23:08:45.490Z,47.41
2023-04-03T23:11:12.598Z,47.81
2023-04-03T23:13:39.506Z,47.79
2023-04-03T23:16:06.782Z,47.35
2023-04-03T23:18:33.836Z,48.11
2023-04-03T23:21:03.271Z,47.98
2023-04-03T23:23:30.754Z,48.27
2023-04-03T23:26:00.357Z,48.07
2023-04-03T23:28:28.842Z,48.25
2023-04-03T23:31:05.513Z,48.31
2023-04-03T23:33:33.294Z,48.34
2023-04-03T23:36:07.278Z,48.32
2023-04-03T23:38:34.898Z,48.52
2023-04-03T23:41:02.138Z,48.45
2023-04-03T23:43:29.280Z,48.84
2023-04-03T23:45:56.314Z,48.84
2023-04-03T23:48:23.186Z,48.75
2023-04-03T23:50:49.990Z,48.88
2023-04-03T23:53:17.199Z,48.74
2023-04-03T23:55:44.164Z,48.98
2023-04-03T23:58:11.034Z,48.62
